Time;durP1;ratioP1;P1;durP2;ratioP2;P2;SDS_P1;SDS_P2;PMS_P1;PMS_P2;Temp;Humidity;BMP_temperature;BMP_pressure;BME280_temperature;BME280_humidity;BME280_pressure;Samples;Min_cycle;Max_cycle;Signal;HPM_P1;HPM_P2
2023/05/24 00:00:45;;;;;;;5.40;3.80;;;17.50;99.90;;;;;;5094677;28;20533;-45
2023/05/24 00:03:14;;;;;;;6.33;3.60;;;17.60;99.90;;;;;;5094761;28;21053;-45
2023/05/24 00:05:41;;;;;;;5.50;3.37;;;17.60;99.90;;;;;;5095057;28;20443;-45
2023/05/24 00:08:08;;;;;;;5.73;3.30;;;17.60;99.90;;;;;;5094932;28;20474;-45
2023/05/24 00:10:35;;;;;;;4.93;3.33;;;17.70;99.90;;;;;;5095067;28;20537;-45
2023/05/24 00:13:03;;;;;;;6.13;3.80;;;17.60;99.90;;;;;;5095338;28;20535;-45
2023/05/24 00:15:31;;;;;;;6.30;4.00;;;17.60;99.90;;;;;;5094726;28;20557;-45
2023/05/24 00:17:57;;;;;;;4.60;3.47;;;17.60;99.90;;;;;;5094897;28;20545;-45
2023/05/24 00:20:25;;;;;;;4.87;3.90;;;17.50;99.90;;;;;;5094845;28;21007;-45
2023/05/24 00:22:52;;;;;;;5.73;4.70;;;17.50;99.90;;;;;;5094906;28;20521;-45
2023/05/24 00:25:19;;;;;;;7.53;5.70;;;17.50;99.90;;;;;;5094958;28;20528;-45
2023/05/24 00:27:46;;;;;;;7.37;6.10;;;17.50;99.90;;;;;;5094776;28;20530;-45
2023/05/24 00:30:14;;;;;;;6.77;5.43;;;17.40;99.90;;;;;;5094799;28;20475;-45
2023/05/24 00:32:41;;;;;;;5.53;4.00;;;17.50;99.90;;;;;;5094399;28;20500;-45
2023/05/24 00:35:08;;;;;;;5.65;4.60;;;17.60;99.90;;;;;;5093831;28;20530;-43
2023/05/24 00:37:36;;;;;;;6.73;4.40;;;17.60;99.90;;;;;;5094678;28;20532;-45
2023/05/24 00:40:03;;;;;;;5.43;4.23;;;17.40;99.90;;;;;;5094620;28;20443;-45
2023/05/24 00:42:30;;;;;;;8.27;4.87;;;17.50;99.90;;;;;;5094112;28;20467;-45
2023/05/24 00:44:57;;;;;;;8.00;5.00;;;17.10;99.90;;;;;;5094575;28;20532;-45
2023/05/24 00:47:25;;;;;;;5.97;4.80;;;17.00;99.90;;;;;;5094069;28;20528;-45
2023/05/24 00:49:52;;;;;;;7.13;5.47;;;17.10;99.90;;;;;;5094203;28;20473;-45
2023/05/24 00:52:19;;;;;;;8.70;6.20;;;17.10;99.90;;;;;;5093904;28;21069;-45
2023/05/24 00:54:46;;;;;;;7.57;5.90;;;17.00;99.90;;;;;;5094332;28;20529;-45
2023/05/24 00:57:13;;;;;;;9.53;5.60;;;17.00;99.90;;;;;;5094039;28;20537;-45
2023/05/24 00:59:41;;;;;;;6.40;5.43;;;16.90;99.90;;;;;;5093735;28;20514;-45
2023/05/24 01:02:07;;;;;;;8.03;6.03;;;16.90;99.90;;;;;;5093841;28;20488;-45
2023/05/24 01:04:36;;;;;;;6.40;5.30;;;16.90;99.90;;;;;;5094138;28;20527;-45
2023/05/24 01:07:13;;;;;;;6.40;5.00;;;17.00;99.90;;;;;;5093601;28;20497;-45
2023/05/24 01:09:55;;;;;;;6.60;5.13;;;17.00;99.90;;;;;;5093925;28;20479;-45
2023/05/24 01:12:32;;;;;;;6.77;4.97;;;17.00;99.90;;;;;;5092589;28;20465;-45
2023/05/24 01:15:07;;;;;;;7.57;5.50;;;17.10;99.90;;;;;;5094283;28;20569;-45
2023/05/24 01:17:41;;;;;;;7.53;5.40;;;17.10;99.90;;;;;;5093707;28;20881;-45
2023/05/24 01:20:13;;;;;;;6.73;4.93;;;17.20;99.90;;;;;;5093427;28;20452;-45
2023/05/24 01:23:13;;;;;;;7.30;5.60;;;17.20;99.90;;;;;;5092969;28;21058;-45
2023/05/24 01:25:55;;;;;;;6.03;4.73;;;17.20;99.90;;;;;;5093402;28;20971;-45
2023/05/24 01:28:24;;;;;;;7.83;5.20;;;17.20;99.90;;;;;;5093723;28;20458;-45
2023/05/24 01:30:51;;;;;;;7.90;6.20;;;17.20;99.90;;;;;;5093428;28;20477;-45
2023/05/24 01:33:19;;;;;;;6.93;5.67;;;17.10;99.90;;;;;;5093063;28;20561;-45
2023/05/24 01:35:46;;;;;;;6.50;5.30;;;17.00;99.90;;;;;;5092886;28;20882;-45
2023/05/24 01:38:14;;;;;;;7.77;5.57;;;16.90;99.90;;;;;;5093574;28;20469;-45
2023/05/24 01:40:41;;;;;;;7.43;5.57;;;17.00;99.90;;;;;;5093364;28;20628;-45
2023/05/24 01:43:18;;;;;;;6.50;4.80;;;17.00;99.90;;;;;;5093053;28;20550;-45
2023/05/24 01:45:54;;;;;;;9.97;5.33;;;17.10;99.90;;;;;;5093417;28;20498;-45
2023/05/24 01:48:30;;;;;;;6.97;5.70;;;17.20;99.90;;;;;;5093361;28;20435;-45
2023/05/24 01:50:59;;;;;;;8.40;5.80;;;17.10;99.90;;;;;;5093245;28;20540;-45
2023/05/24 01:53:31;;;;;;;4.70;4.00;;;17.10;99.90;;;;;;5092852;28;20465;-45
2023/05/24 01:56:01;;;;;;;6.40;5.30;;;17.10;99.90;;;;;;5092730;28;20479;-45
2023/05/24 01:58:31;;;;;;;6.67;5.20;;;17.10;99.90;;;;;;5092675;28;20983;-45
2023/05/24 02:01:00;;;;;;;7.20;5.50;;;17.10;99.90;;;;;;5093043;28;20523;-45
2023/05/24 02:03:27;;;;;;;6.77;4.63;;;17.00;99.90;;;;;;5092648;28;20548;-45
2023/05/24 02:05:53;;;;;;;6.97;4.70;;;17.00;99.90;;;;;;5093261;28;20484;-45
2023/05/24 02:08:20;;;;;;;6.57;5.17;;;17.00;99.90;;;;;;5092841;28;20468;-45
2023/05/24 02:10:47;;;;;;;6.90;4.87;;;16.90;99.90;;;;;;5092769;28;20444;-45
2023/05/24 02:13:16;;;;;;;5.73;4.70;;;17.00;99.90;;;;;;5092553;28;20538;-45
2023/05/24 02:15:43;;;;;;;7.23;6.53;;;16.90;99.90;;;;;;5092624;28;20449;-45
2023/05/24 02:18:12;;;;;;;6.83;5.03;;;16.90;99.90;;;;;;5092375;28;20533;-44
2023/05/24 02:20:40;;;;;;;7.30;5.40;;;16.90;99.90;;;;;;5092346;28;20440;-45
2023/05/24 02:23:07;;;;;;;7.70;5.27;;;16.90;99.90;;;;;;5091994;28;20462;-45
2023/05/24 02:25:34;;;;;;;8.93;5.20;;;16.90;99.90;;;;;;5092664;28;20530;-45
2023/05/24 02:28:01;;;;;;;6.23;4.97;;;16.90;99.90;;;;;;5092319;28;20502;-45
2023/05/24 02:30:28;;;;;;;6.37;5.00;;;17.00;99.90;;;;;;5092309;28;20436;-45
2023/05/24 02:32:55;;;;;;;6.83;5.30;;;16.90;99.90;;;;;;5091987;28;20472;-45
2023/05/24 02:35:23;;;;;;;9.90;5.50;;;16.90;99.90;;;;;;5091734;28;20442;-45
2023/05/24 02:37:50;;;;;;;5.70;4.83;;;17.00;99.90;;;;;;5092350;28;20564;-45
2023/05/24 02:40:17;;;;;;;7.37;5.57;;;17.00;99.90;;;;;;5092384;28;20567;-45
2023/05/24 02:42:44;;;;;;;6.87;4.77;;;16.90;99.90;;;;;;5091881;28;20488;-45
2023/05/24 02:45:11;;;;;;;5.40;4.67;;;16.90;99.90;;;;;;5091859;28;20958;-44
2023/05/24 02:47:38;;;;;;;7.70;5.70;;;16.90;99.90;;;;;;5092070;28;20471;-45
2023/05/24 02:50:06;;;;;;;6.70;5.97;;;16.90;99.90;;;;;;5092231;28;20524;-45
2023/05/24 02:52:35;;;;;;;7.03;5.40;;;16.90;99.90;;;;;;5091988;28;20548;-45
2023/05/24 02:55:02;;;;;;;6.77;5.07;;;16.80;99.90;;;;;;5091845;28;20447;-45
2023/05/24 02:57:28;;;;;;;7.13;4.83;;;16.80;99.90;;;;;;5091347;28;20518;-45
2023/05/24 02:59:55;;;;;;;6.50;4.83;;;16.80;99.90;;;;;;5091580;28;20446;-45
2023/05/24 03:02:22;;;;;;;6.57;5.37;;;16.80;99.90;;;;;;5091838;28;20467;-45
2023/05/24 03:04:49;;;;;;;6.97;5.13;;;16.80;99.90;;;;;;5091739;28;20438;-45
2023/05/24 03:07:16;;;;;;;5.80;5.13;;;16.80;99.90;;;;;;5091342;28;20469;-45
2023/05/24 03:09:45;;;;;;;7.20;5.40;;;16.80;99.90;;;;;;5091564;28;20951;-45
2023/05/24 03:12:12;;;;;;;7.33;5.60;;;16.80;99.90;;;;;;5091193;28;20502;-45
2023/05/24 03:14:39;;;;;;;6.23;5.00;;;16.80;99.90;;;;;;5091608;28;20497;-46
2023/05/24 03:17:06;;;;;;;8.67;5.90;;;16.80;99.90;;;;;;5091542;28;20566;-45
2023/05/24 03:19:33;;;;;;;7.17;5.97;;;16.80;99.90;;;;;;5091339;28;20447;-45
2023/05/24 03:22:00;;;;;;;6.30;5.00;;;16.90;99.90;;;;;;5091164;28;21065;-45
2023/05/24 03:24:27;;;;;;;6.83;4.87;;;16.80;99.90;;;;;;5091585;28;20866;-45
2023/05/24 03:26:55;;;;;;;6.67;5.40;;;16.80;99.90;;;;;;5090908;28;20531;-45
2023/05/24 03:29:22;;;;;;;6.50;5.43;;;16.80;99.90;;;;;;5091505;28;20472;-45
2023/05/24 03:31:49;;;;;;;7.00;5.30;;;16.80;99.90;;;;;;5091217;28;20498;-45
2023/05/24 03:34:16;;;;;;;7.50;5.27;;;16.80;99.90;;;;;;5090374;28;20480;-45
2023/05/24 03:36:43;;;;;;;6.63;5.13;;;16.70;99.90;;;;;;5090429;28;20534;-45
2023/05/24 03:39:09;;;;;;;6.20;5.30;;;16.70;99.90;;;;;;5091413;28;20437;-45
2023/05/24 03:41:36;;;;;;;6.70;5.57;;;16.70;99.90;;;;;;5091365;28;20530;-45
2023/05/24 03:44:05;;;;;;;7.77;5.20;;;16.70;99.90;;;;;;5091210;28;20531;-45
2023/05/24 03:46:32;;;;;;;6.90;5.40;;;16.70;99.90;;;;;;5091134;28;20530;-45
2023/05/24 03:48:59;;;;;;;6.97;5.43;;;16.70;99.90;;;;;;5090402;28;20902;-45
2023/05/24 03:51:28;;;;;;;5.57;5.00;;;16.70;99.90;;;;;;5090599;28;20529;-45
2023/05/24 03:53:56;;;;;;;6.67;5.40;;;16.70;99.90;;;;;;5090047;28;20450;-45
2023/05/24 03:56:23;;;;;;;9.10;5.97;;;16.70;99.90;;;;;;5089191;28;20440;-45
2023/05/24 03:58:51;;;;;;;8.03;6.10;;;16.70;99.90;;;;;;5089104;28;20472;-45
2023/05/24 04:01:19;;;;;;;6.63;5.30;;;16.70;99.90;;;;;;5089344;28;20442;-45
2023/05/24 04:03:46;;;;;;;7.47;5.70;;;16.70;99.90;;;;;;5089143;28;20489;-45
2023/05/24 04:06:13;;;;;;;6.50;5.80;;;16.70;99.90;;;;;;5089500;28;20498;-45
2023/05/24 04:08:40;;;;;;;7.17;6.10;;;16.70;99.90;;;;;;5090303;28;20536;-45
2023/05/24 04:11:07;;;;;;;10.77;6.50;;;16.70;99.90;;;;;;5090935;28;20536;-45
2023/05/24 04:13:34;;;;;;;9.70;6.83;;;16.70;99.90;;;;;;5090842;28;20495;-45
2023/05/24 04:16:01;;;;;;;7.93;6.20;;;16.70;99.90;;;;;;5090732;28;20444;-45
2023/05/24 04:18:30;;;;;;;9.20;6.07;;;16.70;99.90;;;;;;5089517;28;20480;-45
2023/05/24 04:20:57;;;;;;;7.27;5.50;;;16.70;99.90;;;;;;5089344;28;21003;-45
2023/05/24 04:23:23;;;;;;;8.30;6.23;;;16.70;99.90;;;;;;5089008;28;20910;-45
2023/05/24 04:25:50;;;;;;;6.90;5.50;;;16.70;99.90;;;;;;5089293;28;20461;-45
2023/05/24 04:28:17;;;;;;;9.20;6.57;;;16.70;99.90;;;;;;5089120;28;20498;-45
2023/05/24 04:30:44;;;;;;;8.23;6.90;;;16.60;99.90;;;;;;5089081;28;20962;-45
2023/05/24 04:33:11;;;;;;;8.43;7.50;;;16.60;99.90;;;;;;5089251;28;20997;-45
2023/05/24 04:35:40;;;;;;;8.00;6.60;;;16.50;99.90;;;;;;5090132;28;20451;-45
2023/05/24 04:38:07;;;;;;;10.37;7.30;;;16.40;99.90;;;;;;5090705;28;20486;-45
2023/05/24 04:40:34;;;;;;;7.67;6.80;;;16.40;99.90;;;;;;5090403;28;20452;-45
2023/05/24 04:43:01;;;;;;;8.10;7.30;;;16.30;99.90;;;;;;5090211;28;20978;-45
2023/05/24 04:45:29;;;;;;;10.43;7.63;;;16.40;99.90;;;;;;5091466;28;20474;-45
2023/05/24 04:47:56;;;;;;;12.60;7.93;;;16.40;99.90;;;;;;5094034;28;20532;-46
2023/05/24 04:50:23;;;;;;;10.60;7.93;;;16.40;99.90;;;;;;5094479;28;20529;-45
2023/05/24 04:52:52;;;;;;;8.47;7.47;;;16.40;99.90;;;;;;5094046;28;20461;-45
2023/05/24 04:55:19;;;;;;;9.60;7.80;;;16.20;99.90;;;;;;5093987;28;20444;-45
2023/05/24 04:57:46;;;;;;;10.20;7.10;;;16.20;99.90;;;;;;5093385;28;20807;-45
2023/05/24 05:00:14;;;;;;;11.90;8.30;;;16.30;99.90;;;;;;5094316;28;20451;-45
2023/05/24 05:02:40;;;;;;;9.50;7.20;;;16.40;99.90;;;;;;5093848;28;20899;-45
2023/05/24 05:05:08;;;;;;;8.13;7.07;;;16.40;99.90;;;;;;5093797;28;20485;-45
2023/05/24 05:07:35;;;;;;;11.27;7.13;;;16.40;99.90;;;;;;5093989;28;20480;-45
2023/05/24 05:10:04;;;;;;;10.20;7.90;;;16.40;99.90;;;;;;5093754;28;20522;-45
2023/05/24 05:12:31;;;;;;;9.70;8.00;;;16.40;99.90;;;;;;5093813;28;20496;-45
2023/05/24 05:14:58;;;;;;;9.63;8.40;;;16.40;99.90;;;;;;5094032;28;20523;-45
2023/05/24 05:17:25;;;;;;;9.67;8.10;;;16.30;99.90;;;;;;5093729;28;20509;-45
2023/05/24 05:19:51;;;;;;;9.47;7.30;;;16.30;99.90;;;;;;5093690;28;20606;-45
2023/05/24 05:22:18;;;;;;;10.63;9.47;;;16.30;99.90;;;;;;5093360;28;20496;-45
2023/05/24 05:24:45;;;;;;;10.40;8.10;;;16.30;99.90;;;;;;5093564;28;20440;-45
2023/05/24 05:27:13;;;;;;;7.80;6.87;;;16.40;99.90;;;;;;5093756;28;20531;-44
2023/05/24 05:29:41;;;;;;;9.53;7.73;;;16.40;99.90;;;;;;5093806;28;20878;-44
2023/05/24 05:32:08;;;;;;;9.40;6.43;;;16.40;99.90;;;;;;5093738;28;21038;-45
2023/05/24 05:34:35;;;;;;;10.37;7.73;;;16.50;99.90;;;;;;5093532;28;20857;-45
2023/05/24 05:37:01;;;;;;;9.13;7.50;;;16.60;99.90;;;;;;5092691;28;20525;-45
2023/05/24 05:39:30;;;;;;;9.70;7.50;;;16.60;99.90;;;;;;5093309;28;20447;-45
2023/05/24 05:41:57;;;;;;;10.23;8.40;;;16.40;99.90;;;;;;5092724;28;20472;-45
2023/05/24 05:44:25;;;;;;;10.50;8.60;;;16.40;99.90;;;;;;5093074;28;20487;-45
2023/05/24 05:46:52;;;;;;;10.33;8.30;;;16.50;99.90;;;;;;5092662;28;20502;-45
2023/05/24 05:49:19;;;;;;;8.97;8.07;;;16.50;99.90;;;;;;5092317;28;20527;-45
2023/05/24 05:51:46;;;;;;;8.87;7.70;;;16.60;99.90;;;;;;5093193;28;20506;-45
2023/05/24 05:54:17;;;;;;;8.50;7.30;;;16.70;99.90;;;;;;5092994;28;20958;-45
2023/05/24 05:56:46;;;;;;;9.10;8.20;;;16.70;99.90;;;;;;5085514;28;20485;-45
2023/05/24 05:59:14;;;;;;;12.07;8.80;;;16.70;99.90;;;;;;5083787;28;20496;-45
2023/05/24 06:01:44;;;;;;;10.70;8.53;;;16.50;99.90;;;;;;5091242;28;20505;-45
2023/05/24 06:04:11;;;;;;;8.83;7.70;;;16.30;99.90;;;;;;5084539;28;21010;-45
2023/05/24 06:06:38;;;;;;;9.27;8.27;;;16.30;99.90;;;;;;5090362;28;21175;-45
2023/05/24 06:09:05;;;;;;;9.80;8.43;;;16.30;99.90;;;;;;5085582;28;20886;-43
2023/05/24 06:11:32;;;;;;;12.37;10.10;;;16.30;99.90;;;;;;5088938;28;20451;-45
2023/05/24 06:13:59;;;;;;;13.00;10.73;;;16.30;99.90;;;;;;5091392;28;20502;-46
2023/05/24 06:16:26;;;;;;;11.37;10.17;;;16.30;99.90;;;;;;5088940;28;20531;-44
2023/05/24 06:18:55;;;;;;;11.20;10.10;;;16.30;99.90;;;;;;5088067;28;20931;-43
2023/05/24 06:21:22;;;;;;;11.67;9.73;;;16.30;99.90;;;;;;5091468;28;20447;-45
2023/05/24 06:23:48;;;;;;;10.80;9.00;;;16.30;99.90;;;;;;5083560;28;20539;-45
2023/05/24 06:26:15;;;;;;;11.47;9.80;;;16.40;99.90;;;;;;5085837;28;20535;-45
2023/05/24 06:28:42;;;;;;;13.37;9.80;;;16.40;99.90;;;;;;5089754;28;20997;-46
2023/05/24 06:31:09;;;;;;;10.17;9.03;;;16.30;99.90;;;;;;5089654;28;20531;-43
2023/05/24 06:33:36;;;;;;;9.57;8.57;;;16.30;99.90;;;;;;5090622;28;20471;-45
2023/05/24 06:36:04;;;;;;;11.70;9.07;;;16.20;99.90;;;;;;5090786;28;20482;-45
2023/05/24 06:38:31;;;;;;;11.10;9.57;;;16.20;99.90;;;;;;5090338;28;20512;-45
2023/05/24 06:40:58;;;;;;;11.47;10.27;;;16.20;99.90;;;;;;5090559;28;20870;-45
2023/05/24 06:43:25;;;;;;;13.03;9.63;;;15.80;99.90;;;;;;5090829;28;20487;-44
2023/05/24 06:45:52;;;;;;;10.80;9.70;;;15.70;99.90;;;;;;5090223;28;20502;-46
2023/05/24 06:48:19;;;;;;;13.07;10.57;;;15.80;99.90;;;;;;5088336;28;20530;-45
2023/05/24 06:50:46;;;;;;;13.27;10.13;;;16.00;99.90;;;;;;5086405;28;20527;-45
2023/05/24 06:53:15;;;;;;;14.03;10.60;;;16.00;99.90;;;;;;5089690;28;21069;-45
2023/05/24 06:55:42;;;;;;;13.17;10.83;;;16.10;99.90;;;;;;5091133;28;20471;-45
2023/05/24 06:58:13;;;;;;;14.27;11.33;;;16.20;99.90;;;;;;5090925;28;20677;-45
2023/05/24 07:00:40;;;;;;;12.80;10.23;;;16.20;99.90;;;;;;5091880;28;20444;-45
2023/05/24 07:03:07;;;;;;;10.70;9.57;;;16.30;99.90;;;;;;5091864;28;20506;-45
2023/05/24 07:05:34;;;;;;;11.37;10.00;;;16.20;99.90;;;;;;5091436;28;20958;-45
2023/05/24 07:08:01;;;;;;;13.03;11.17;;;16.20;99.90;;;;;;5091240;28;20498;-45
2023/05/24 07:10:29;;;;;;;13.40;11.40;;;16.30;99.90;;;;;;5090885;28;20824;-45
2023/05/24 07:12:56;;;;;;;11.97;10.30;;;16.40;99.90;;;;;;5086212;28;20479;-45
2023/05/24 07:15:23;;;;;;;12.47;10.60;;;16.50;99.90;;;;;;5086736;28;20957;-45
2023/05/24 07:17:51;;;;;;;14.60;11.20;;;16.60;99.90;;;;;;5090556;28;20556;-45
2023/05/24 07:20:18;;;;;;;11.37;9.40;;;16.60;99.90;;;;;;5087578;28;20448;-45
2023/05/24 07:22:45;;;;;;;12.50;10.23;;;16.50;99.90;;;;;;5090108;28;20492;-46
2023/05/24 07:25:12;;;;;;;11.87;10.67;;;16.70;99.90;;;;;;5084243;28;20533;-43
2023/05/24 07:27:40;;;;;;;9.90;8.67;;;16.80;99.90;;;;;;5087488;28;20570;-43
2023/05/24 07:30:08;;;;;;;10.40;8.57;;;16.70;99.90;;;;;;5086749;28;20474;-45
2023/05/24 07:32:35;;;;;;;14.33;11.20;;;16.90;99.90;;;;;;5086173;28;20551;-43
2023/05/24 07:35:02;;;;;;;10.63;9.13;;;17.00;99.90;;;;;;5080970;28;20487;-43
2023/05/24 07:37:29;;;;;;;11.63;9.67;;;17.00;99.90;;;;;;5084842;28;20827;-45
2023/05/24 07:39:56;;;;;;;9.80;8.80;;;16.90;99.90;;;;;;5090225;28;20445;-45
2023/05/24 07:42:23;;;;;;;12.87;10.23;;;16.90;99.90;;;;;;5083881;28;20503;-45
2023/05/24 07:44:52;;;;;;;13.10;10.77;;;16.60;99.90;;;;;;5089407;28;20474;-45
2023/05/24 07:47:18;;;;;;;11.60;10.20;;;16.10;99.90;;;;;;5089144;28;20711;-45
2023/05/24 07:49:45;;;;;;;14.37;12.10;;;15.70;99.90;;;;;;5087117;28;20524;-45
2023/05/24 07:52:13;;;;;;;11.53;9.33;;;15.60;99.90;;;;;;5089399;28;20515;-45
2023/05/24 07:54:40;;;;;;;10.37;8.80;;;15.80;99.90;;;;;;5089807;28;20446;-45
2023/05/24 07:57:08;;;;;;;9.77;8.77;;;16.10;99.90;;;;;;5090017;28;20442;-46
2023/05/24 07:59:34;;;;;;;11.37;9.67;;;16.30;99.90;;;;;;5090077;28;20566;-45
2023/05/24 08:02:04;;;;;;;12.90;8.67;;;16.30;99.90;;;;;;5090170;28;21011;-45
2023/05/24 08:04:31;;;;;;;10.27;8.83;;;16.40;99.90;;;;;;5090535;28;20837;-45
2023/05/24 08:07:00;;;;;;;9.97;8.07;;;16.70;99.90;;;;;;5091044;28;20489;-45
2023/05/24 08:09:28;;;;;;;13.83;9.17;;;16.80;99.90;;;;;;5090994;28;20785;-45
2023/05/24 08:11:55;;;;;;;8.97;8.07;;;17.00;99.90;;;;;;5090278;28;20463;-45
2023/05/24 08:14:22;;;;;;;12.20;9.20;;;17.10;99.90;;;;;;5089248;28;20523;-45
2023/05/24 08:16:49;;;;;;;12.30;9.50;;;17.10;99.90;;;;;;5089931;28;20533;-45
2023/05/24 08:19:18;;;;;;;9.10;7.80;;;17.00;99.90;;;;;;5089915;28;20866;-45
2023/05/24 08:21:45;;;;;;;11.20;8.33;;;16.90;99.90;;;;;;5093376;28;20484;-46
2023/05/24 08:24:12;;;;;;;9.80;8.77;;;17.00;99.90;;;;;;5094385;28;20454;-46
2023/05/24 08:26:39;;;;;;;10.03;7.93;;;17.00;99.90;;;;;;5094061;28;20776;-46
2023/05/24 08:29:06;;;;;;;11.20;8.63;;;17.20;99.90;;;;;;5094360;28;20467;-45
2023/05/24 08:31:33;;;;;;;9.90;8.87;;;17.20;99.90;;;;;;5094575;28;20440;-45
2023/05/24 08:34:00;;;;;;;9.50;8.47;;;17.30;99.90;;;;;;5094410;28;20491;-45
2023/05/24 08:36:28;;;;;;;7.97;6.73;;;17.50;99.90;;;;;;5094760;28;20534;-45
2023/05/24 08:38:55;;;;;;;8.23;6.70;;;17.60;99.90;;;;;;5094388;28;20848;-46
2023/05/24 08:41:22;;;;;;;5.23;4.50;;;17.70;99.90;;;;;;5093961;28;20446;-45
2023/05/24 08:43:50;;;;;;;5.47;4.70;;;17.80;99.90;;;;;;5094190;28;20460;-46
2023/05/24 08:46:17;;;;;;;7.80;5.20;;;17.80;99.90;;;;;;5094118;28;20470;-45
2023/05/24 08:48:46;;;;;;;5.10;4.57;;;18.00;99.90;;;;;;5093728;28;21021;-44
2023/05/24 08:51:15;;;;;;;6.27;4.77;;;18.00;99.90;;;;;;5093276;28;21025;-45
2023/05/24 08:53:48;;;;;;;4.90;4.17;;;18.00;99.90;;;;;;5094070;28;20498;-45
2023/05/24 08:56:17;;;;;;;7.03;5.73;;;18.00;99.90;;;;;;5093266;28;20449;-46
2023/05/24 08:58:45;;;;;;;8.60;5.30;;;17.90;99.90;;;;;;5093191;28;20560;-46
2023/05/24 09:01:13;;;;;;;9.07;5.93;;;17.90;99.90;;;;;;5093560;28;20449;-44
2023/05/24 09:03:42;;;;;;;7.20;5.90;;;17.90;99.90;;;;;;5093611;28;20552;-45
2023/05/24 09:06:10;;;;;;;6.57;5.10;;;18.00;99.90;;;;;;5093495;28;20461;-45
2023/05/24 09:08:38;;;;;;;7.70;6.90;;;18.00;99.90;;;;;;5093793;28;20515;-46
2023/05/24 09:11:08;;;;;;;6.73;4.83;;;18.00;99.90;;;;;;5092754;28;20750;-45
2023/05/24 09:13:35;;;;;;;6.63;4.57;;;18.10;99.90;;;;;;5092254;28;20558;-45
2023/05/24 09:16:03;;;;;;;5.60;4.90;;;18.10;99.90;;;;;;5091724;28;20524;-45
2023/05/24 09:18:30;;;;;;;4.90;3.53;;;18.00;99.90;;;;;;5092211;28;20534;-45
2023/05/24 09:20:56;;;;;;;4.90;3.90;;;18.00;99.90;;;;;;5091422;28;20530;-46
2023/05/24 09:23:25;;;;;;;3.80;3.40;;;18.10;99.90;;;;;;5091586;28;20544;-45
2023/05/24 09:25:52;;;;;;;4.70;3.97;;;18.20;99.90;;;;;;5090546;28;20525;-46
2023/05/24 09:28:21;;;;;;;5.60;3.63;;;18.10;99.90;;;;;;5092608;28;20999;-45
2023/05/24 09:31:00;;;;;;;4.83;3.83;;;18.10;99.90;;;;;;5093727;28;20454;-46
2023/05/24 09:33:31;;;;;;;5.90;4.20;;;18.10;99.90;;;;;;5091191;28;20469;-44
2023/05/24 09:35:59;;;;;;;5.77;4.30;;;18.20;99.90;;;;;;5093658;28;20446;-46
2023/05/24 09:38:26;;;;;;;5.20;3.90;;;18.20;99.90;;;;;;5092059;28;20543;-45
2023/05/24 09:41:01;;;;;;;5.57;3.90;;;18.10;99.90;;;;;;5092557;28;20501;-45
2023/05/24 09:43:31;;;;;;;4.40;3.47;;;17.50;99.90;;;;;;5092829;28;20493;-45
2023/05/24 09:46:00;;;;;;;5.30;4.20;;;17.60;99.90;;;;;;5091443;28;20450;-45
2023/05/24 09:48:27;;;;;;;5.33;4.20;;;17.70;99.90;;;;;;5091683;28;20441;-45
2023/05/24 09:51:04;;;;;;;8.83;5.17;;;17.90;99.90;;;;;;5091969;28;20520;-45
2023/05/24 09:53:32;;;;;;;5.60;4.60;;;17.90;99.90;;;;;;5091485;28;20548;-45
2023/05/24 09:56:00;;;;;;;6.57;5.40;;;18.10;99.90;;;;;;5091445;28;20461;-45
2023/05/24 09:58:32;;;;;;;4.97;3.67;;;18.20;99.90;;;;;;5091208;28;21004;-46
2023/05/24 10:01:07;;;;;;;5.70;4.70;;;18.20;99.90;;;;;;5093080;28;20450;-45
2023/05/24 10:03:34;;;;;;;4.23;3.57;;;18.30;99.90;;;;;;5092822;28;20458;-46
2023/05/24 10:06:03;;;;;;;5.97;5.27;;;18.30;99.90;;;;;;5092838;28;20443;-46
2023/05/24 10:08:32;;;;;;;7.40;5.30;;;18.30;99.90;;;;;;5092033;28;20438;-46
2023/05/24 10:10:59;;;;;;;8.50;6.37;;;18.20;99.90;;;;;;5092403;28;20437;-45
2023/05/24 10:13:27;;;;;;;7.70;5.73;;;18.20;99.90;;;;;;5092300;28;20541;-45
2023/05/24 10:15:55;;;;;;;8.43;5.97;;;18.30;99.90;;;;;;5091362;28;20522;-45
2023/05/24 10:18:22;;;;;;;9.03;5.80;;;18.30;99.90;;;;;;5092112;28;20540;-45
2023/05/24 10:20:51;;;;;;;6.07;5.33;;;18.30;99.90;;;;;;5091945;28;20518;-45
2023/05/24 10:23:21;;;;;;;7.07;5.63;;;18.20;99.90;;;;;;5091195;28;20486;-45
2023/05/24 10:25:52;;;;;;;6.63;5.70;;;18.10;99.90;;;;;;5091818;28;20439;-45
2023/05/24 10:28:22;;;;;;;5.50;4.47;;;18.10;99.90;;;;;;5092406;28;20499;-45
2023/05/24 10:31:00;;;;;;;6.27;5.00;;;18.20;99.90;;;;;;5091985;28;20443;-46
2023/05/24 10:33:27;;;;;;;5.20;4.23;;;18.20;99.90;;;;;;5088884;28;20492;-43
2023/05/24 10:35:56;;;;;;;6.00;5.23;;;17.80;99.90;;;;;;5091910;28;20510;-45
2023/05/24 10:38:24;;;;;;;6.13;4.43;;;17.10;99.90;;;;;;5091926;28;20521;-45
2023/05/24 10:40:51;;;;;;;5.60;4.30;;;17.20;99.90;;;;;;5092090;28;20463;-45
2023/05/24 10:43:18;;;;;;;4.30;3.57;;;16.70;99.90;;;;;;5091461;28;20461;-45
2023/05/24 10:45:49;;;;;;;4.70;3.70;;;16.40;99.90;;;;;;5071695;28;20523;-45
2023/05/24 10:48:37;;;;;;;5.30;3.70;;;16.20;99.90;;;;;;5072218;28;20435;-45
2023/05/24 10:51:37;;;;;;;7.70;4.20;;;15.80;99.90;;;;;;5072018;28;20498;-45
2023/05/24 10:54:25;;;;;;;6.03;4.00;;;15.50;99.90;;;;;;5071990;28;20445;-45
2023/05/24 10:56:52;;;;;;;6.07;4.23;;;15.40;99.90;;;;;;5071173;28;20436;-47
2023/05/24 10:59:33;;;;;;;5.20;3.47;;;15.10;99.90;;;;;;5071479;28;20473;-47
2023/05/24 11:02:01;;;;;;;5.70;3.90;;;14.80;99.90;;;;;;5069913;28;20555;-45
2023/05/24 11:04:31;;;;;;;9.70;3.73;;;15.00;99.90;;;;;;5070241;28;20504;-45
2023/05/24 11:07:02;;;;;;;4.80;3.17;;;14.90;99.90;;;;;;5070131;28;20494;-47
2023/05/24 11:09:29;;;;;;;4.73;3.40;;;14.90;99.90;;;;;;5070010;28;20452;-47
2023/05/24 11:11:57;;;;;;;3.90;2.67;;;14.90;99.90;;;;;;5069914;28;20488;-46
2023/05/24 11:14:28;;;;;;;5.93;3.17;;;15.00;99.90;;;;;;5069726;28;20533;-45
2023/05/24 11:16:55;;;;;;;4.53;3.03;;;15.20;99.90;;;;;;5070369;28;20444;-47
2023/05/24 11:19:23;;;;;;;5.70;3.30;;;15.30;99.90;;;;;;5070944;28;20472;-46
2023/05/24 11:21:53;;;;;;;5.47;2.97;;;15.40;99.90;;;;;;5071177;28;20496;-46
2023/05/24 11:24:22;;;;;;;3.40;2.20;;;15.40;99.90;;;;;;5071399;28;20459;-47
2023/05/24 11:26:50;;;;;;;6.10;3.13;;;15.80;99.90;;;;;;5071119;28;20447;-45
2023/05/24 11:29:20;;;;;;;7.73;4.73;;;15.50;99.90;;;;;;5071535;28;20441;-45
2023/05/24 11:31:49;;;;;;;6.30;3.00;;;15.80;99.90;;;;;;5071575;28;20551;-44
2023/05/24 11:34:17;;;;;;;5.27;3.90;;;16.00;99.90;;;;;;5070752;28;20459;-45
2023/05/24 11:36:44;;;;;;;3.23;2.80;;;16.00;99.90;;;;;;5070882;28;20444;-45
2023/05/24 11:39:13;;;;;;;4.53;2.90;;;16.00;99.90;;;;;;5071058;28;20520;-45
2023/05/24 11:41:40;;;;;;;5.37;4.00;;;16.10;99.90;;;;;;5070183;28;20938;-45
2023/05/24 11:44:08;;;;;;;5.90;4.00;;;16.20;99.90;;;;;;5070557;28;20491;-45
2023/05/24 11:46:37;;;;;;;5.87;4.10;;;16.20;99.90;;;;;;5069962;28;20494;-45
2023/05/24 11:49:05;;;;;;;5.97;4.13;;;16.30;99.90;;;;;;5069604;28;20490;-46
2023/05/24 11:51:34;;;;;;;70.73;14.87;;;16.50;99.90;;;;;;5069013;28;20512;-46
2023/05/24 11:54:01;;;;;;;7.17;4.53;;;16.70;99.90;;;;;;5069331;28;20857;-46
2023/05/24 11:56:31;;;;;;;5.30;3.57;;;16.80;99.90;;;;;;5073621;28;20473;-46
2023/05/24 11:59:09;;;;;;;5.10;3.90;;;16.60;99.90;;;;;;5074234;28;20449;-46
2023/05/24 12:01:36;;;;;;;5.63;3.30;;;16.60;99.90;;;;;;5074820;28;20520;-45
2023/05/24 12:04:07;;;;;;;4.03;3.13;;;16.80;99.90;;;;;;5072930;28;20465;-46
2023/05/24 12:06:35;;;;;;;10.30;5.50;;;16.90;99.90;;;;;;5073172;28;20445;-46
2023/05/24 12:09:04;;;;;;;3.00;1.80;;;17.00;99.90;;;;;;5073415;28;20452;-45
2023/05/24 12:11:33;;;;;;;6.80;3.90;;;17.10;99.90;;;;;;5072899;28;20443;-45
2023/05/24 12:14:00;;;;;;;4.27;1.97;;;16.90;99.90;;;;;;5073333;28;20449;-45
2023/05/24 12:16:30;;;;;;;2.90;1.60;;;16.60;99.90;;;;;;5073464;28;20769;-46
2023/05/24 12:18:58;;;;;;;2.20;1.00;;;16.70;99.90;;;;;;5073851;28;21009;-46
2023/05/24 12:21:25;;;;;;;2.47;1.07;;;16.80;99.90;;;;;;5073824;28;20437;-46
2023/05/24 12:23:52;;;;;;;2.50;1.27;;;16.90;99.90;;;;;;5074193;28;20444;-47
2023/05/24 12:26:21;;;;;;;2.17;1.30;;;16.90;99.90;;;;;;5074296;28;20830;-46
2023/05/24 12:28:53;;;;;;;2.10;1.03;;;16.80;99.90;;;;;;5074267;28;20453;-46
2023/05/24 12:31:21;;;;;;;3.17;1.20;;;16.50;99.90;;;;;;5073931;28;20929;-45
2023/05/24 12:33:48;;;;;;;2.93;1.37;;;16.50;99.90;;;;;;5073924;28;20468;-46
2023/05/24 12:36:15;;;;;;;2.40;1.17;;;16.40;99.90;;;;;;5074037;28;20440;-45
2023/05/24 12:38:42;;;;;;;5.10;1.23;;;16.50;99.90;;;;;;5074199;28;21027;-45
2023/05/24 12:41:11;;;;;;;3.60;1.30;;;16.40;99.90;;;;;;5073803;28;20937;-44
2023/05/24 12:43:39;;;;;;;2.30;1.27;;;16.50;99.90;;;;;;5074106;28;20995;-45
2023/05/24 12:46:07;;;;;;;5.23;1.87;;;16.60;99.90;;;;;;5073143;28;20484;-46
2023/05/24 12:48:34;;;;;;;3.70;0.97;;;16.60;99.90;;;;;;5074204;28;20497;-45